sensor_id;sensor_type;location;lat;lon;timestamp;temperature;humidity
23813;DHT22;12087;45.190;5.688;2023-08-12T00:01:20;24.40;94.70
23813;DHT22;12087;45.190;5.688;2023-08-12T00:06:43;24.40;94.60
23813;DHT22;12087;45.190;5.688;2023-08-12T00:12:05;24.30;94.90
23813;DHT22;12087;45.190;5.688;2023-08-12T00:17:29;24.30;94.80
23813;DHT22;12087;45.190;5.688;2023-08-12T00:22:51;24.30;95.20
23813;DHT22;12087;45.190;5.688;2023-08-12T00:28:13;24.20;95.30
23813;DHT22;12087;45.190;5.688;2023-08-12T00:33:37;24.10;95.30
23813;DHT22;12087;45.190;5.688;2023-08-12T00:38:59;24.10;95.10
23813;DHT22;12087;45.190;5.688;2023-08-12T00:44:21;24.10;96.00
23813;DHT22;12087;45.190;5.688;2023-08-12T00:49:45;24.00;96.20
23813;DHT22;12087;45.190;5.688;2023-08-12T00:55:08;24.00;96.50
23813;DHT22;12087;45.190;5.688;2023-08-12T01:00:31;23.90;96.70
23813;DHT22;12087;45.190;5.688;2023-08-12T01:05:55;23.90;97.00
23813;DHT22;12087;45.190;5.688;2023-08-12T01:11:28;23.80;97.20
23813;DHT22;12087;45.190;5.688;2023-08-12T01:16:59;23.70;97.10
23813;DHT22;12087;45.190;5.688;2023-08-12T01:22:27;23.70;97.00
23813;DHT22;12087;45.190;5.688;2023-08-12T01:27:54;23.60;97.30
23813;DHT22;12087;45.190;5.688;2023-08-12T01:33:21;23.60;97.30
23813;DHT22;12087;45.190;5.688;2023-08-12T01:38:47;23.60;97.80
23813;DHT22;12087;45.190;5.688;2023-08-12T01:44:12;23.50;98.50
23813;DHT22;12087;45.190;5.688;2023-08-12T01:49:34;23.60;98.10
23813;DHT22;12087;45.190;5.688;2023-08-12T01:54:56;23.60;98.00
23813;DHT22;12087;45.190;5.688;2023-08-12T02:00:20;23.50;97.80
23813;DHT22;12087;45.190;5.688;2023-08-12T02:05:42;23.50;98.50
23813;DHT22;12087;45.190;5.688;2023-08-12T02:11:05;23.40;98.70
23813;DHT22;12087;45.190;5.688;2023-08-12T02:16:28;23.40;99.00
23813;DHT22;12087;45.190;5.688;2023-08-12T02:21:50;23.40;99.20
23813;DHT22;12087;45.190;5.688;2023-08-12T02:27:13;23.30;99.70
23813;DHT22;12087;45.190;5.688;2023-08-12T02:32:36;23.30;99.70
23813;DHT22;12087;45.190;5.688;2023-08-12T02:37:58;23.20;99.90
23813;DHT22;12087;45.190;5.688;2023-08-12T02:43:21;23.10;99.90
23813;DHT22;12087;45.190;5.688;2023-08-12T02:48:45;23.00;99.90
23813;DHT22;12087;45.190;5.688;2023-08-12T02:54:08;23.00;99.90
23813;DHT22;12087;45.190;5.688;2023-08-12T02:59:30;23.00;99.90
23813;DHT22;12087;45.190;5.688;2023-08-12T03:04:53;22.90;99.90
23813;DHT22;12087;45.190;5.688;2023-08-12T03:10:16;22.80;99.90
23813;DHT22;12087;45.190;5.688;2023-08-12T03:15:39;22.90;99.90
23813;DHT22;12087;45.190;5.688;2023-08-12T03:21:07;23.00;99.90
23813;DHT22;12087;45.190;5.688;2023-08-12T03:26:29;23.00;99.90
23813;DHT22;12087;45.190;5.688;2023-08-12T03:31:51;23.00;99.90
23813;DHT22;12087;45.190;5.688;2023-08-12T03:37:15;22.90;99.90
23813;DHT22;12087;45.190;5.688;2023-08-12T03:42:37;23.00;99.90
23813;DHT22;12087;45.190;5.688;2023-08-12T03:48:00;23.00;99.90
23813;DHT22;12087;45.190;5.688;2023-08-12T03:53:24;22.90;99.90
23813;DHT22;12087;45.190;5.688;2023-08-12T03:58:46;23.00;99.90
23813;DHT22;12087;45.190;5.688;2023-08-12T04:04:08;22.90;99.90
23813;DHT22;12087;45.190;5.688;2023-08-12T04:09:32;22.90;99.90
23813;DHT22;12087;45.190;5.688;2023-08-12T04:14:54;22.90;99.90
23813;DHT22;12087;45.190;5.688;2023-08-12T04:20:16;22.80;99.90
23813;DHT22;12087;45.190;5.688;2023-08-12T04:25:40;22.80;99.90
23813;DHT22;12087;45.190;5.688;2023-08-12T04:31:06;22.80;99.90
23813;DHT22;12087;45.190;5.688;2023-08-12T04:36:29;22.80;99.90
23813;DHT22;12087;45.190;5.688;2023-08-12T04:41:53;22.70;99.90
23813;DHT22;12087;45.190;5.688;2023-08-12T04:47:15;22.70;99.90
23813;DHT22;12087;45.190;5.688;2023-08-12T04:52:38;22.70;99.90
23813;DHT22;12087;45.190;5.688;2023-08-12T04:58:01;22.60;99.90
23813;DHT22;12087;45.190;5.688;2023-08-12T05:03:24;22.60;99.90
23813;DHT22;12087;45.190;5.688;2023-08-12T05:08:46;22.70;99.90
23813;DHT22;12087;45.190;5.688;2023-08-12T05:14:10;22.70;99.90
23813;DHT22;12087;45.190;5.688;2023-08-12T05:19:32;22.70;99.90
23813;DHT22;12087;45.190;5.688;2023-08-12T05:24:54;22.70;99.90
23813;DHT22;12087;45.190;5.688;2023-08-12T05:30:18;22.80;99.90
23813;DHT22;12087;45.190;5.688;2023-08-12T05:35:40;22.80;99.90
23813;DHT22;12087;45.190;5.688;2023-08-12T05:41:02;22.70;99.90
23813;DHT22;12087;45.190;5.688;2023-08-12T05:46:29;22.80;99.90
23813;DHT22;12087;45.190;5.688;2023-08-12T05:51:51;22.90;99.90
23813;DHT22;12087;45.190;5.688;2023-08-12T05:57:13;22.90;99.90
23813;DHT22;12087;45.190;5.688;2023-08-12T06:02:37;23.10;99.90
23813;DHT22;12087;45.190;5.688;2023-08-12T06:07:59;23.20;99.90
23813;DHT22;12087;45.190;5.688;2023-08-12T06:13:21;23.20;99.90
23813;DHT22;12087;45.190;5.688;2023-08-12T06:18:45;23.30;99.90
23813;DHT22;12087;45.190;5.688;2023-08-12T06:24:08;23.30;99.90
23813;DHT22;12087;45.190;5.688;2023-08-12T06:29:30;23.40;99.90
23813;DHT22;12087;45.190;5.688;2023-08-12T06:34:54;23.40;99.90
23813;DHT22;12087;45.190;5.688;2023-08-12T06:40:16;23.50;99.90
23813;DHT22;12087;45.190;5.688;2023-08-12T06:45:38;23.50;99.90
23813;DHT22;12087;45.190;5.688;2023-08-12T06:51:02;23.50;99.90
23813;DHT22;12087;45.190;5.688;2023-08-12T06:56:31;23.50;99.90
23813;DHT22;12087;45.190;5.688;2023-08-12T07:01:53;23.60;99.90
23813;DHT22;12087;45.190;5.688;2023-08-12T07:07:16;23.60;99.90
23813;DHT22;12087;45.190;5.688;2023-08-12T07:12:39;23.60;99.90
23813;DHT22;12087;45.190;5.688;2023-08-12T07:18:03;23.80;99.90
23813;DHT22;12087;45.190;5.688;2023-08-12T07:23:26;23.80;99.90
23813;DHT22;12087;45.190;5.688;2023-08-12T07:28:49;23.90;99.90
23813;DHT22;12087;45.190;5.688;2023-08-12T07:34:11;24.10;99.90
23813;DHT22;12087;45.190;5.688;2023-08-12T07:39:35;24.20;99.90
23813;DHT22;12087;45.190;5.688;2023-08-12T07:44:58;24.40;99.90
23813;DHT22;12087;45.190;5.688;2023-08-12T07:50:20;24.40;99.90
23813;DHT22;12087;45.190;5.688;2023-08-12T07:55:44;24.50;99.90
23813;DHT22;12087;45.190;5.688;2023-08-12T08:01:06;24.50;99.90
23813;DHT22;12087;45.190;5.688;2023-08-12T08:06:30;24.50;99.90
23813;DHT22;12087;45.190;5.688;2023-08-12T08:11:53;24.50;99.90
23813;DHT22;12087;45.190;5.688;2023-08-12T08:17:15;24.40;99.90
23813;DHT22;12087;45.190;5.688;2023-08-12T08:22:38;24.50;99.90
23813;DHT22;12087;45.190;5.688;2023-08-12T08:28:02;24.50;99.90
23813;DHT22;12087;45.190;5.688;2023-08-12T08:33:25;24.70;99.90
23813;DHT22;12087;45.190;5.688;2023-08-12T08:38:47;24.80;99.90
23813;DHT22;12087;45.190;5.688;2023-08-12T08:44:11;24.90;99.90
23813;DHT22;12087;45.190;5.688;2023-08-12T08:49:37;25.10;99.90
23813;DHT22;12087;45.190;5.688;2023-08-12T08:55:02;25.40;99.90
23813;DHT22;12087;45.190;5.688;2023-08-12T09:00:28;25.50;99.90
23813;DHT22;12087;45.190;5.688;2023-08-12T09:05:52;25.60;99.90
23813;DHT22;12087;45.190;5.688;2023-08-12T09:11:17;25.80;99.10
23813;DHT22;12087;45.190;5.688;2023-08-12T09:16:41;26.00;99.20
23813;DHT22;12087;45.190;5.688;2023-08-12T09:22:03;26.00;99.00
23813;DHT22;12087;45.190;5.688;2023-08-12T09:27:26;26.10;99.80
23813;DHT22;12087;45.190;5.688;2023-08-12T09:32:58;26.40;98.80
23813;DHT22;12087;45.190;5.688;2023-08-12T09:38:21;26.60;98.70
23813;DHT22;12087;45.190;5.688;2023-08-12T09:43:44;26.80;97.50
23813;DHT22;12087;45.190;5.688;2023-08-12T09:49:09;27.00;96.30
23813;DHT22;12087;45.190;5.688;2023-08-12T09:54:32;27.20;95.70
23813;DHT22;12087;45.190;5.688;2023-08-12T09:59:55;27.50;96.30
23813;DHT22;12087;45.190;5.688;2023-08-12T10:05:22;27.70;95.10
23813;DHT22;12087;45.190;5.688;2023-08-12T10:10:46;28.00;94.80
23813;DHT22;12087;45.190;5.688;2023-08-12T10:16:09;28.20;95.50
23813;DHT22;12087;45.190;5.688;2023-08-12T10:21:34;28.40;95.00
23813;DHT22;12087;45.190;5.688;2023-08-12T10:26:56;28.70;94.60
23813;DHT22;12087;45.190;5.688;2023-08-12T10:32:18;28.80;94.10
23813;DHT22;12087;45.190;5.688;2023-08-12T10:37:48;29.00;93.40
23813;DHT22;12087;45.190;5.688;2023-08-12T10:43:11;29.40;93.80
23813;DHT22;12087;45.190;5.688;2023-08-12T10:48:35;29.70;92.70
23813;DHT22;12087;45.190;5.688;2023-08-12T10:54:13;29.80;92.30
23813;DHT22;12087;45.190;5.688;2023-08-12T10:59:50;30.00;93.00
23813;DHT22;12087;45.190;5.688;2023-08-12T11:05:13;30.60;92.50
23813;DHT22;12087;45.190;5.688;2023-08-12T11:10:37;31.00;91.30
23813;DHT22;12087;45.190;5.688;2023-08-12T11:16:07;31.10;91.50
23813;DHT22;12087;45.190;5.688;2023-08-12T11:21:29;31.40;90.20
23813;DHT22;12087;45.190;5.688;2023-08-12T11:26:54;31.50;89.50
23813;DHT22;12087;45.190;5.688;2023-08-12T11:32:17;31.80;87.70
23813;DHT22;12087;45.190;5.688;2023-08-12T11:37:41;32.10;87.30
23813;DHT22;12087;45.190;5.688;2023-08-12T11:43:05;32.30;85.30
23813;DHT22;12087;45.190;5.688;2023-08-12T11:48:28;32.40;84.40
23813;DHT22;12087;45.190;5.688;2023-08-12T11:53:50;32.80;82.90
23813;DHT22;12087;45.190;5.688;2023-08-12T11:59:14;32.70;83.10
23813;DHT22;12087;45.190;5.688;2023-08-12T12:04:36;32.70;81.80
23813;DHT22;12087;45.190;5.688;2023-08-12T12:09:58;33.00;81.00
23813;DHT22;12087;45.190;5.688;2023-08-12T12:15:22;33.10;80.60
23813;DHT22;12087;45.190;5.688;2023-08-12T12:20:55;33.10;81.30
23813;DHT22;12087;45.190;5.688;2023-08-12T12:26:18;33.20;81.70
23813;DHT22;12087;45.190;5.688;2023-08-12T12:31:42;32.90;83.20
23813;DHT22;12087;45.190;5.688;2023-08-12T12:37:04;32.60;84.90
23813;DHT22;12087;45.190;5.688;2023-08-12T12:42:26;32.60;83.60
23813;DHT22;12087;45.190;5.688;2023-08-12T12:47:50;32.80;82.80
23813;DHT22;12087;45.190;5.688;2023-08-12T12:53:12;32.90;82.00
23813;DHT22;12087;45.190;5.688;2023-08-12T12:58:37;33.10;81.30
23813;DHT22;12087;45.190;5.688;2023-08-12T13:04:02;33.30;81.00
23813;DHT22;12087;45.190;5.688;2023-08-12T13:09:25;33.10;80.50
23813;DHT22;12087;45.190;5.688;2023-08-12T13:14:48;32.80;79.50
23813;DHT22;12087;45.190;5.688;2023-08-12T13:20:12;32.60;80.20
23813;DHT22;12087;45.190;5.688;2023-08-12T13:25:34;32.70;81.00
23813;DHT22;12087;45.190;5.688;2023-08-12T13:30:56;33.20;79.80
23813;DHT22;12087;45.190;5.688;2023-08-12T13:36:20;33.50;77.70
23813;DHT22;12087;45.190;5.688;2023-08-12T13:42:03;33.30;76.50
23813;DHT22;12087;45.190;5.688;2023-08-12T13:47:27;33.00;76.60
23813;DHT22;12087;45.190;5.688;2023-08-12T13:52:51;32.70;76.90
23813;DHT22;12087;45.190;5.688;2023-08-12T13:58:14;32.50;77.70
23813;DHT22;12087;45.190;5.688;2023-08-12T14:03:36;32.30;77.10
23813;DHT22;12087;45.190;5.688;2023-08-12T14:09:00;32.20;76.60
23813;DHT22;12087;45.190;5.688;2023-08-12T14:14:26;32.20;77.30
23813;DHT22;12087;45.190;5.688;2023-08-12T14:19:49;32.20;76.90
23813;DHT22;12087;45.190;5.688;2023-08-12T14:25:13;32.30;77.80
23813;DHT22;12087;45.190;5.688;2023-08-12T14:30:37;32.30;76.90
23813;DHT22;12087;45.190;5.688;2023-08-12T14:35:59;32.30;75.90
23813;DHT22;12087;45.190;5.688;2023-08-12T14:41:23;32.20;75.90
23813;DHT22;12087;45.190;5.688;2023-08-12T14:46:45;32.10;78.50
23813;DHT22;12087;45.190;5.688;2023-08-12T14:52:17;32.00;77.40
23813;DHT22;12087;45.190;5.688;2023-08-12T14:57:41;31.90;76.90
23813;DHT22;12087;45.190;5.688;2023-08-12T15:03:04;31.90;76.40
23813;DHT22;12087;45.190;5.688;2023-08-12T15:08:27;31.90;76.70
23813;DHT22;12087;45.190;5.688;2023-08-12T15:13:51;31.90;77.00
23813;DHT22;12087;45.190;5.688;2023-08-12T15:19:13;31.80;76.60
23813;DHT22;12087;45.190;5.688;2023-08-12T15:24:36;31.90;76.50
23813;DHT22;12087;45.190;5.688;2023-08-12T15:30:00;31.80;76.90
23813;DHT22;12087;45.190;5.688;2023-08-12T15:35:23;31.60;77.60
23813;DHT22;12087;45.190;5.688;2023-08-12T15:40:45;31.50;76.80
23813;DHT22;12087;45.190;5.688;2023-08-12T15:46:09;31.50;76.00
23813;DHT22;12087;45.190;5.688;2023-08-12T15:51:31;31.50;76.50
23813;DHT22;12087;45.190;5.688;2023-08-12T15:56:53;31.40;78.20
23813;DHT22;12087;45.190;5.688;2023-08-12T16:02:18;31.30;78.10
23813;DHT22;12087;45.190;5.688;2023-08-12T16:07:40;31.40;78.30
23813;DHT22;12087;45.190;5.688;2023-08-12T16:13:03;31.20;78.60
23813;DHT22;12087;45.190;5.688;2023-08-12T16:18:26;31.20;79.20
23813;DHT22;12087;45.190;5.688;2023-08-12T16:23:49;31.20;79.90
23813;DHT22;12087;45.190;5.688;2023-08-12T16:29:11;31.10;79.80
23813;DHT22;12087;45.190;5.688;2023-08-12T16:34:34;31.20;79.90
23813;DHT22;12087;45.190;5.688;2023-08-12T16:39:57;31.30;79.40
23813;DHT22;12087;45.190;5.688;2023-08-12T16:45:19;31.40;79.20
23813;DHT22;12087;45.190;5.688;2023-08-12T16:50:44;31.40;79.30
23813;DHT22;12087;45.190;5.688;2023-08-12T16:56:06;31.40;78.70
23813;DHT22;12087;45.190;5.688;2023-08-12T17:01:28;31.40;79.40
23813;DHT22;12087;45.190;5.688;2023-08-12T17:06:52;31.40;79.40
23813;DHT22;12087;45.190;5.688;2023-08-12T17:12:14;31.30;79.00
23813;DHT22;12087;45.190;5.688;2023-08-12T17:17:36;31.30;79.20
23813;DHT22;12087;45.190;5.688;2023-08-12T17:23:00;31.20;79.00
23813;DHT22;12087;45.190;5.688;2023-08-12T17:28:22;31.10;79.00
23813;DHT22;12087;45.190;5.688;2023-08-12T17:33:45;31.00;79.10
23813;DHT22;12087;45.190;5.688;2023-08-12T17:39:09;30.80;81.30
23813;DHT22;12087;45.190;5.688;2023-08-12T17:44:31;30.70;81.00
23813;DHT22;12087;45.190;5.688;2023-08-12T17:49:53;30.60;79.90
23813;DHT22;12087;45.190;5.688;2023-08-12T17:55:17;30.50;79.80
23813;DHT22;12087;45.190;5.688;2023-08-12T18:00:51;30.40;81.30
23813;DHT22;12087;45.190;5.688;2023-08-12T18:06:13;30.30;82.30
23813;DHT22;12087;45.190;5.688;2023-08-12T18:11:39;30.10;82.60
23813;DHT22;12087;45.190;5.688;2023-08-12T18:17:01;30.00;83.60
23813;DHT22;12087;45.190;5.688;2023-08-12T18:22:23;29.90;85.50
23813;DHT22;12087;45.190;5.688;2023-08-12T18:27:47;29.70;85.70
23813;DHT22;12087;45.190;5.688;2023-08-12T18:33:10;29.60;86.20
23813;DHT22;12087;45.190;5.688;2023-08-12T18:38:32;29.50;87.00
23813;DHT22;12087;45.190;5.688;2023-08-12T18:43:56;29.40;88.30
23813;DHT22;12087;45.190;5.688;2023-08-12T18:49:19;29.20;88.60
23813;DHT22;12087;45.190;5.688;2023-08-12T18:54:41;29.10;88.90
23813;DHT22;12087;45.190;5.688;2023-08-12T19:00:06;29.00;88.50
23813;DHT22;12087;45.190;5.688;2023-08-12T19:05:28;28.90;86.10
23813;DHT22;12087;45.190;5.688;2023-08-12T19:10:53;28.80;87.50
23813;DHT22;12087;45.190;5.688;2023-08-12T19:16:18;28.70;87.20
23813;DHT22;12087;45.190;5.688;2023-08-12T19:21:40;28.70;87.40
23813;DHT22;12087;45.190;5.688;2023-08-12T19:27:02;28.60;87.00
23813;DHT22;12087;45.190;5.688;2023-08-12T19:32:26;28.50;86.90
23813;DHT22;12087;45.190;5.688;2023-08-12T19:37:48;28.50;87.90
23813;DHT22;12087;45.190;5.688;2023-08-12T19:43:12;28.30;86.40
23813;DHT22;12087;45.190;5.688;2023-08-12T19:48:39;28.30;87.20
23813;DHT22;12087;45.190;5.688;2023-08-12T19:54:01;28.30;88.20
23813;DHT22;12087;45.190;5.688;2023-08-12T19:59:24;28.20;88.20
23813;DHT22;12087;45.190;5.688;2023-08-12T20:05:12;28.10;89.20
23813;DHT22;12087;45.190;5.688;2023-08-12T20:10:46;28.00;88.20
23813;DHT22;12087;45.190;5.688;2023-08-12T20:16:15;27.90;88.10
23813;DHT22;12087;45.190;5.688;2023-08-12T20:21:39;27.80;89.00
23813;DHT22;12087;45.190;5.688;2023-08-12T20:27:02;27.70;90.00
23813;DHT22;12087;45.190;5.688;2023-08-12T20:32:24;27.70;90.90
23813;DHT22;12087;45.190;5.688;2023-08-12T20:37:50;27.70;91.70
23813;DHT22;12087;45.190;5.688;2023-08-12T20:43:13;27.60;91.70
23813;DHT22;12087;45.190;5.688;2023-08-12T20:48:35;27.50;92.10
23813;DHT22;12087;45.190;5.688;2023-08-12T20:53:59;27.50;93.20
23813;DHT22;12087;45.190;5.688;2023-08-12T20:59:21;27.30;93.40
23813;DHT22;12087;45.190;5.688;2023-08-12T21:04:44;27.20;93.20
23813;DHT22;12087;45.190;5.688;2023-08-12T21:10:08;27.10;93.40
23813;DHT22;12087;45.190;5.688;2023-08-12T21:15:31;27.00;93.50
23813;DHT22;12087;45.190;5.688;2023-08-12T21:20:53;26.90;94.20
23813;DHT22;12087;45.190;5.688;2023-08-12T21:26:17;26.80;93.80
23813;DHT22;12087;45.190;5.688;2023-08-12T21:31:39;26.70;93.70
23813;DHT22;12087;45.190;5.688;2023-08-12T21:37:01;26.60;94.40
23813;DHT22;12087;45.190;5.688;2023-08-12T21:42:25;26.50;94.60
23813;DHT22;12087;45.190;5.688;2023-08-12T21:47:47;26.40;94.50
23813;DHT22;12087;45.190;5.688;2023-08-12T21:53:09;26.30;94.50
23813;DHT22;12087;45.190;5.688;2023-08-12T21:58:33;26.20;94.40
23813;DHT22;12087;45.190;5.688;2023-08-12T22:03:55;26.10;94.80
23813;DHT22;12087;45.190;5.688;2023-08-12T22:09:18;26.00;94.50
23813;DHT22;12087;45.190;5.688;2023-08-12T22:14:42;25.90;94.80
23813;DHT22;12087;45.190;5.688;2023-08-12T22:20:06;25.90;95.10
23813;DHT22;12087;45.190;5.688;2023-08-12T22:25:29;25.80;95.20
23813;DHT22;12087;45.190;5.688;2023-08-12T22:30:52;25.80;95.20
23813;DHT22;12087;45.190;5.688;2023-08-12T22:36:15;25.70;95.60
23813;DHT22;12087;45.190;5.688;2023-08-12T22:41:37;25.70;95.40
23813;DHT22;12087;45.190;5.688;2023-08-12T22:47:01;25.60;96.30
23813;DHT22;12087;45.190;5.688;2023-08-12T22:52:24;25.60;96.30
23813;DHT22;12087;45.190;5.688;2023-08-12T22:57:47;25.50;96.70
23813;DHT22;12087;45.190;5.688;2023-08-12T23:03:10;25.50;97.00
23813;DHT22;12087;45.190;5.688;2023-08-12T23:08:33;25.40;97.10
23813;DHT22;12087;45.190;5.688;2023-08-12T23:13:55;25.30;97.40
23813;DHT22;12087;45.190;5.688;2023-08-12T23:19:18;25.20;97.30
23813;DHT22;12087;45.190;5.688;2023-08-12T23:24:41;25.10;97.40
23813;DHT22;12087;45.190;5.688;2023-08-12T23:30:04;25.10;97.70
23813;DHT22;12087;45.190;5.688;2023-08-12T23:35:27;25.00;97.70
23813;DHT22;12087;45.190;5.688;2023-08-12T23:40:50;24.90;97.90
23813;DHT22;12087;45.190;5.688;2023-08-12T23:46:12;24.90;98.30
23813;DHT22;12087;45.190;5.688;2023-08-12T23:51:37;24.80;98.10
23813;DHT22;12087;45.190;5.688;2023-08-12T23:57:00;24.80;98.80
